• Join FlightAware (Why Join?)
  • Login
  • US Flag 
01:47AM EDT


 

Airport Tracker/Info


-or-


 

Live Flight TrackerFlight Track Log ✈ LXJ437 ✈ 16-Jun-2013 ✈ KMAF - KSNA

Flight Track Log - Related Links

Times and Time Zones

All times are in EDT time to prevent confusion due to time zone crossing. See the LXJ437 flight status page for this flight to view local times or setup timezone preferences in your user account.

Time Position Orientation Groundspeed Altitude Reporting Facility
EDT Latitude Longitude Course Direction KTS MPH feet Rate Location/Type
03:15PM 31.8703 -102.3422 270° West 284 327 12,000  Level Fort Worth Center
03:16PM 31.8744 -102.4500 273° West 308 354 15,200 3,180 Climbing Fort Worth Center
03:17PM 31.8739 -102.5675 270° West 344 396 18,400 3,300 Climbing Fort Worth Center
03:18PM 31.8775 -103.0592 263° West  Level FlightAware Approximate
03:18PM 31.8747 -102.6969 270° West 372 428 21,800  Level Fort Worth Center
03:18PM 31.8733 -102.8192 269° West 389 448 25,300 3,240 Climbing Albuquerque Center
03:19PM 31.8667 -103.1812 270° West  Level FlightAware Approximate
03:20PM 31.8667 -103.3040 270° West  Level FlightAware Approximate
03:20PM 31.8733 -102.9425 270° West 383 441 28,300  Level Albuquerque Center
03:21PM 31.8742 -103.0672 270° West 383 441 30,700 2,520 Climbing Albuquerque Center
03:22PM 31.8736 -103.2042 270° West 380 437 33,500 1,560 Climbing Albuquerque Center
03:23PM 31.8683 -103.3311 267° West 385 443 34,000 240 Climbing Albuquerque Center
03:24PM 31.8583 -103.4683 265° West 414 476 34,000  Level Albuquerque Center
03:25PM 31.8494 -103.6067 266° West 422 486 34,000  Level Albuquerque Center
03:26PM 31.8400 -103.7522 266° West 419 482 34,000  Level Albuquerque Center
03:27PM 31.8314 -103.9044 266° West 411 473 34,000  Level Albuquerque Center
03:28PM 31.8228 -104.0408 266° West 417 480 34,000  Level Albuquerque Center
03:29PM 31.7925 -104.1733 255° West 427 491 34,000 240 Level Albuquerque Center
03:30PM 31.7397 -104.2969 243° Southwest 427 491 34,600 1,200 Climbing Albuquerque Center
03:31PM 31.6906 -104.4186 245° Southwest 419 482 36,500 1,740 Climbing Albuquerque Center
03:32PM 31.6483 -104.5381 247° West 406 467 38,300 1,500 Climbing Albuquerque Center
03:33PM 31.6703 -104.6911 280° West 404 465 39,700 780 Climbing Albuquerque Center
03:34PM 31.7033 -104.8172 287° West 406 467 40,000 120 Climbing Albuquerque Center
03:35PM 31.7364 -104.9497 286° West 419 482 40,000  Level Albuquerque Center
03:36PM 31.7683 -105.0764 287° West 413 475 40,000  Level Albuquerque Center
03:37PM 31.8008 -105.1994 287° West 401 461 40,000  Level Albuquerque Center
03:38PM 31.8311 -105.3264 286° West 404 465 40,100 720 Climbing Albuquerque Center
03:39PM 31.8692 -105.4792 286° West 405 466 41,500 1,200 Climbing Albuquerque Center
03:40PM 31.9006 -105.6036 287° West 400 460 42,600 720 Climbing Albuquerque Center
03:41PM 31.9308 -105.7281 286° West 398 458 43,000 180 Climbing Albuquerque Center
03:42PM 31.9625 -105.8539 287° West 402 463 43,000  Level Albuquerque Center
03:43PM 31.9964 -105.9889 287° West 396 456 43,000  Level Albuquerque Center
03:44PM 32.0267 -106.1122 286° West 394 453 43,000  Level Albuquerque Center
03:45PM 32.0567 -106.2364 286° West 396 456 43,000  Level Albuquerque Center
03:46PM 32.0872 -106.3619 286° West 399 459 43,000  Level Albuquerque Center
03:47PM 32.1172 -106.4883 286° West 400 460 43,000  Level Albuquerque Center
03:48PM 32.1475 -106.6142 286° West 399 459 43,000  Level Albuquerque Center
03:49PM 32.1767 -106.7406 285° West 399 459 43,000  Level Albuquerque Center
03:50PM 32.2142 -106.8964 286° West 401 461 43,000  Level Albuquerque Center
03:51PM 32.2439 -107.0225 286° West 400 460 43,000  Level Albuquerque Center
03:52PM 32.2769 -107.1592 286° West 402 463 43,000  Level Albuquerque Center
03:53PM 32.2997 -107.2722 283° West 408 470 43,000  Level Albuquerque Center
03:55PM 32.3281 -107.3986 285° West 404 465 43,000  Level Albuquerque Center
03:56PM 32.3603 -107.5394 285° West 403 464 43,000  Level Albuquerque Center
03:57PM 32.3894 -107.6653 285° West 398 458 43,000  Level Albuquerque Center
03:58PM 32.4186 -107.7919 285° West 398 458 43,000  Level Albuquerque Center
03:59PM 32.4492 -107.9261 285° West 398 458 43,000  Level Albuquerque Center
04:00PM 32.4772 -108.0514 285° West 397 457 43,000  Level Albuquerque Center
04:01PM 32.5111 -108.2003 285° West 394 453 43,000  Level Albuquerque Center
04:02PM 32.5392 -108.3239 285° West 392 451 43,000  Level Albuquerque Center
04:03PM 32.5669 -108.4503 285° West 396 456 43,000  Level Albuquerque Center
04:04PM 32.5944 -108.5742 285° West 393 452 43,000  Level Albuquerque Center
04:05PM 32.6214 -108.6992 284° West 392 451 43,000  Level Albuquerque Center
04:06PM 32.6483 -108.8233 284° West 390 449 43,000  Level Albuquerque Center
04:07PM 32.6747 -108.9478 284° West 389 448 43,000  Level Albuquerque Center
04:08PM 32.7086 -109.0981 285° West 390 449 43,000  Level Albuquerque Center
04:09PM 32.7356 -109.2250 284° West 393 452 43,000  Level Albuquerque Center
04:10PM 32.7625 -109.3514 284° West 394 453 43,000  Level Albuquerque Center
04:11PM 32.7892 -109.4769 284° West 393 452 43,000  Level Albuquerque Center
04:12PM 32.8164 -109.6008 285° West 391 450 43,000  Level Albuquerque Center
04:13PM 32.8428 -109.7267 284° West 393 452 43,000  Level Albuquerque Center
04:14PM 32.8744 -109.8769 284° West 393 452 43,000  Level Albuquerque Center
04:15PM 32.9000 -110.0017 284° West 391 450 43,000  Level Albuquerque Center
04:16PM 32.9297 -110.1272 286° West 395 455 43,000  Level Albuquerque Center
04:17PM 32.9553 -110.2517 284° West 394 453 43,000  Level Albuquerque Center
04:18PM 32.9797 -110.3756 283° West 390 449 43,000  Level Albuquerque Center
04:19PM 33.0056 -110.5003 284° West 390 449 43,000  Level Albuquerque Center
04:20PM 33.0361 -110.6483 284° West 388 447 43,000  Level Albuquerque Center
04:21PM 33.0611 -110.7750 283° West 386 444 43,000  Level Albuquerque Center
04:22PM 33.0869 -110.8989 284° West 386 444 43,000  Level Albuquerque Center
04:23PM 33.1108 -111.0222 283° West 383 441 43,000  Level Albuquerque Center
04:24PM 33.1369 -111.1475 284° West 389 448 43,000  Level Albuquerque Center
04:25PM 33.1619 -111.2744 283° West 392 451 43,000  Level Albuquerque Center
04:26PM 33.1858 -111.4033 283° West 396 456 43,000  Level Albuquerque Center
04:27PM 33.2153 -111.5581 283° West 398 458 43,000  Level Albuquerque Center
04:29PM 33.2414 -111.6872 284° West 398 458 43,000  Level Albuquerque Center
04:30PM 33.2656 -111.8158 283° West 398 458 43,000  Level Albuquerque Center
04:31PM 33.2903 -111.9436 283° West 395 455 43,000  Level Albuquerque Center
04:32PM 33.3133 -112.0681 283° West 388 447 43,000 -240 Level Albuquerque Center
04:33PM 33.3367 -112.1917 283° West 383 441 42,600 -840 Descending Albuquerque Center
04:34PM 33.3586 -112.3181 282° West 386 444 41,300 -1,500 Descending Albuquerque Center
04:35PM 33.3892 -112.4756 283° West 403 464 39,500 -1,500 Descending Albuquerque Center
04:36PM 33.4119 -112.5992 282° West 404 465 38,300 -780 Descending Albuquerque Center
04:37PM 33.4369 -112.7333 283° West 411 473 38,000 -180 Descending Albuquerque Center
04:38PM 33.4625 -112.8661 283° West 413 475 38,000  Level Albuquerque Center
04:39PM 33.4872 -112.9953 283° West 405 466 38,000  Level Albuquerque Center
04:40PM 33.5164 -113.1503 283° West 401 461 38,000 -780 Level Albuquerque Center
04:41PM 33.5400 -113.2769 283° West 395 455 36,500 -1,680 Descending Albuquerque Center
04:42PM 33.5639 -113.4011 283° West 388 447 34,600 -1,260 Descending Albuquerque Center
04:43PM 33.5894 -113.5339 283° West 402 463 34,000 -300 Descending Albuquerque Center
04:44PM 33.6169 -113.6844 282° West 418 481 34,000  Level Albuquerque Center
04:45PM 33.6414 -113.8169 283° West 412 474 34,000  Level Albuquerque Center
04:46PM 33.6664 -113.9533 282° West 415 478 34,000  Level Albuquerque Center
04:47PM 33.6928 -114.0942 283° West 426 490 34,000  Level Albuquerque Center
04:48PM 33.7169 -114.2269 282° West 429 494 34,000  Level Los Angeles Center
04:49PM 33.7422 -114.3631 283° West 422 486 34,000  Level Los Angeles Center
04:50PM 33.7722 -114.5272 282° West 422 486 34,000  Level Los Angeles Center
04:51PM 33.7819 -114.6667 275° West 421 484 34,000  Level Los Angeles Center
04:52PM 33.7892 -114.8031 274° West 412 474 34,000  Level Los Angeles Center
04:53PM 33.7975 -114.9411 274° West 415 478 34,000  Level Los Angeles Center
04:54PM 33.8058 -115.1072 274° West 417 480 34,000  Level Los Angeles Center
04:55PM 33.8156 -115.2728 274° West 415 478 34,000  Level Los Angeles Center
04:56PM 33.8222 -115.4097 273° West 413 475 34,000 -60 Level Los Angeles Center
04:58PM 33.8294 -115.5461 274° West 411 473 33,900 -840 Descending Los Angeles Center
04:59PM 33.8361 -115.6819 273° West 408 470 32,300 -1,680 Descending Los Angeles Center
05:00PM 33.8433 -115.8200 274° West 417 480 30,500 -2,400 Descending Los Angeles Center
05:01PM 33.8489 -115.9550 273° West 409 471 27,400 -3,060 Descending Los Angeles Center
05:02PM 33.8572 -116.1239 273° West 420 483 24,200 -2,880 Descending Los Angeles Center
05:03PM 33.8636 -116.2642 273° West 423 487 21,500 -2,520 Descending Los Angeles Center
05:04PM 33.8686 -116.4011 273° West 415 478 19,100 -2,100 Descending Los Angeles Center
05:05PM 33.8747 -116.5303 273° West 394 453 17,200 -1,920 Descending Los Angeles Center
05:06PM 33.8814 -116.6586 274° West 388 447 15,200 -1,620 Descending Los Angeles Center
05:07PM 33.8786 -116.8078 269° West 383 441 13,900 -660 Descending Los Angeles Center
05:08PM 33.8622 -116.9328 261° West 379 436 13,900 -840 Level Los Angeles Center
05:09PM 33.8472 -117.0558 262° West 378 435 12,200 -1,620 Descending Los Angeles Center
05:10PM 33.8361 -117.1400 261° West 337 388 10,600 -2,160 Descending Los Angeles Center
05:10PM 33.8333 -117.2000 267° West 301 346 9,300 -2,160 Descending Southern California TRACON
05:11PM 33.8167 -117.3000 259° West 294 338 8,000 -720 Descending Southern California TRACON
05:12PM 33.8000 -117.3833 256° West 261 300 7,900 -60 Descending Southern California TRACON
05:13PM 33.7978 -117.4464 268° West 252 290 7,900 -240 Level Los Angeles Center
05:14PM 33.7897 -117.5156 262° West 219 252 7,500 -660 Descending Los Angeles Center
05:15PM 33.7814 -117.5869 262° West 217 250 6,600 -480 Descending Los Angeles Center
05:16PM 33.8000 -117.6667 286° West 188 216 6,500 -600 Descending Southern California TRACON
05:17PM 33.8167 -117.7167 292° West 184 212 5,400 -1,260 Descending Southern California TRACON
05:18PM 33.8167 -117.7667 270° West 191 220 4,000 -1,260 Descending Southern California TRACON
05:19PM 33.7667 -117.8167 220° Southwest 174 200 2,900 -1,200 Descending Southern California TRACON
05:20PM 33.7333 -117.8333 203° Southwest 140 161 1,600 -1,140 Descending Southern California TRACON
05:21PM 33.7000 -117.8500 203° Southwest 130 150 700 -900 Descending Southern California TRACON
05:24PM 33.6757 -117.8682 132° Southeast  Level Estimated
05:31PM 33.6757 -117.8682 132° Southeast  Level Estimated